Time;durP1;ratioP1;P1;durP2;ratioP2;P2;SDS_P1;SDS_P2;PMS_P1;PMS_P2;Temp;Humidity;BMP_temperature;BMP_pressure;BME280_temperature;BME280_humidity;BME280_pressure;Samples;Min_cycle;Max_cycle;Signal;HPM_P1;HPM_P2
2022/01/25 00:08:44;;;;;;;;;;;;;;;-2.09;100.00;97299.97;1030714;28;19914;-71
2022/01/25 00:25:43;;;;;;;;;;;;;;;-2.45;100.00;97297.31;1028561;28;20359;-71
2022/01/25 00:26:23;;;;;;;;;;;;;;;-2.42;100.00;97291.88;1026570;28;19961;-71
2022/01/25 00:27:25;;;;;;;;;;;;;;;-2.39;100.00;97291.59;1022276;28;20030;-69
2022/01/25 00:28:16;;;;;;;;;;;;;;;-2.44;100.00;97286.91;1030378;28;19917;-70
2022/01/25 00:28:52;;;;;;;;;;;;;;;-2.49;100.00;97288.25;1033506;28;19948;-71
2022/01/25 00:31:15;;;;;;;;;;;;;;;-2.61;100.00;97293.59;1030449;28;19949;-71
2022/01/25 00:31:46;;;;;;;;;;;;;;;-2.54;100.00;97282.75;1023718;28;19925;-70
2022/01/25 00:32:16;;;;;;;;;;;;;;;-2.55;100.00;97286.25;1020687;29;19915;-70
2022/01/25 00:32:46;;;;;;;;;;;;;;;-2.48;100.00;97289.88;1026072;28;20392;-69
2022/01/25 00:33:17;;;;;;;;;;;;;;;-2.45;100.00;97284.44;1026725;28;19910;-70
2022/01/25 00:33:48;;;;;;;;;;;;;;;-2.44;100.00;97286.09;1030545;28;19918;-71
2022/01/25 00:34:18;;;;;;;;;;;;;;;-2.45;100.00;97282.72;1026263;28;19914;-70
2022/01/25 00:34:49;;;;;;;;;;;;;;;-2.54;100.00;97288.69;1022474;28;19957;-71
2022/01/25 00:35:19;;;;;;;;;;;;;;;-2.53;100.00;97289.50;1022770;29;19938;-70
2022/01/25 00:35:49;;;;;;;;;;;;;;;-2.53;100.00;97279.22;1022156;29;19915;-70
2022/01/25 00:36:22;;;;;;;;;;;;;;;-2.50;100.00;97284.09;1018614;29;20001;-71
2022/01/25 00:36:53;;;;;;;;;;;;;;;-2.46;100.00;97282.84;1023380;28;20270;-72
2022/01/25 00:37:23;;;;;;;;;;;;;;;-2.48;100.00;97285.56;1031415;28;20295;-71
2022/01/25 00:37:53;;;;;;;;;;;;;;;-2.47;100.00;97281.22;1034097;28;19968;-72
2022/01/25 00:38:24;;;;;;;;;;;;;;;-2.45;100.00;97287.84;1026655;28;19906;-71
2022/01/25 00:38:54;;;;;;;;;;;;;;;-2.41;100.00;97286.63;1022480;29;19907;-69
2022/01/25 00:39:25;;;;;;;;;;;;;;;-2.43;100.00;97285.13;1018724;29;19930;-70
2022/01/25 00:39:55;;;;;;;;;;;;;;;-2.60;100.00;97255.88;1022940;28;19911;-70
2022/01/25 00:40:25;;;;;;;;;;;;;;;-2.42;100.00;97284.16;1030763;28;19921;-70
2022/01/25 00:40:55;;;;;;;;;;;;;;;-2.40;100.00;97290.00;1030614;28;19956;-70
2022/01/25 00:41:26;;;;;;;;;;;;;;;-2.37;100.00;97285.38;1026560;28;19917;-70
2022/01/25 00:41:56;;;;;;;;;;;;;;;-2.36;100.00;97283.59;1026407;28;19937;-71
2022/01/25 00:42:26;;;;;;;;;;;;;;;-2.32;100.00;97284.94;1026847;28;20401;-69
2022/01/25 00:42:57;;;;;;;;;;;;;;;-2.31;100.00;97284.00;1029635;28;20360;-70
2022/01/25 00:43:27;;;;;;;;;;;;;;;-2.28;100.00;97280.31;1030316;28;20557;-71
2022/01/25 00:44:00;;;;;;;;;;;;;;;-2.32;100.00;97277.22;1030497;28;19943;-71
2022/01/25 00:44:35;;;;;;;;;;;;;;;-2.26;100.00;97286.13;1026479;28;19913;-70
2022/01/25 00:45:08;;;;;;;;;;;;;;;-2.26;100.00;97283.56;1028043;28;19918;-71
2022/01/25 00:45:38;;;;;;;;;;;;;;;-2.28;100.00;97285.44;1030543;28;19914;-71
2022/01/25 00:46:11;;;;;;;;;;;;;;;-2.32;100.00;97279.78;1026428;28;19910;-71
2022/01/25 00:46:41;;;;;;;;;;;;;;;-2.32;100.00;97277.22;1026677;28;19910;-71
2022/01/25 00:47:11;;;;;;;;;;;;;;;-2.33;100.00;97283.31;1026320;28;20072;-71
2022/01/25 00:47:46;;;;;;;;;;;;;;;-2.29;100.00;97284.66;1030658;28;20447;-71
2022/01/25 00:48:19;;;;;;;;;;;;;;;-2.30;100.00;97283.03;1038575;28;20341;-71
2022/01/25 00:48:53;;;;;;;;;;;;;;;-2.33;100.00;97285.88;1034651;28;19925;-71
2022/01/25 00:49:27;;;;;;;;;;;;;;;-2.28;100.00;97285.44;1029423;28;20477;-71
2022/01/25 00:49:58;;;;;;;;;;;;;;;-2.27;100.00;97287.09;1022485;29;20328;-70
2022/01/25 00:50:36;;;;;;;;;;;;;;;-2.27;100.00;97284.53;1023622;28;19930;-71
2022/01/25 00:52:22;;;;;;;;;;;;;;;-2.21;100.00;97289.91;1022453;29;20427;-70
2022/01/25 00:54:26;;;;;;;;;;;;;;;-2.13;100.00;97287.41;1025930;28;19957;-70
2022/01/25 00:54:58;;;;;;;;;;;;;;;-2.08;100.00;97289.53;1018235;29;19938;-70
2022/01/25 00:55:29;;;;;;;;;;;;;;;-2.10;100.00;97295.78;1015238;29;20014;-70
2022/01/25 00:55:59;;;;;;;;;;;;;;;-2.09;100.00;97289.69;1022606;28;20359;-71
2022/01/25 00:56:34;;;;;;;;;;;;;;;-2.20;100.00;97286.38;1015537;29;20387;-70
2022/01/25 00:57:04;;;;;;;;;;;;;;;-2.24;100.00;97292.75;1022474;28;20316;-70
2022/01/25 00:57:34;;;;;;;;;;;;;;;-2.27;100.00;97290.47;1022090;29;19965;-69
2022/01/25 00:58:04;;;;;;;;;;;;;;;-2.28;100.00;97291.44;1019895;29;20295;-71
2022/01/25 00:58:35;;;;;;;;;;;;;;;-2.26;100.00;97286.94;1018149;29;19947;-70
2022/01/25 00:59:11;;;;;;;;;;;;;;;-2.31;100.00;97289.13;1014760;29;19915;-71
2022/01/25 00:59:41;;;;;;;;;;;;;;;-2.39;100.00;97292.41;1022775;28;19907;-70
2022/01/25 01:00:12;;;;;;;;;;;;;;;-2.40;100.00;97284.84;1028343;28;19914;-71
2022/01/25 01:00:42;;;;;;;;;;;;;;;-2.41;100.00;97285.81;1030144;28;19918;-71
2022/01/25 01:01:12;;;;;;;;;;;;;;;-2.43;100.00;97282.56;1026588;28;20355;-71
2022/01/25 01:01:43;;;;;;;;;;;;;;;-2.38;100.00;97286.34;1022675;28;20403;-71
2022/01/25 01:02:13;;;;;;;;;;;;;;;-2.39;100.00;97283.88;1026739;28;20012;-71
2022/01/25 01:02:43;;;;;;;;;;;;;;;-2.38;100.00;97282.97;1034183;28;19960;-70
2022/01/25 01:03:14;;;;;;;;;;;;;;;-2.37;100.00;97285.38;1034319;28;19906;-71
2022/01/25 01:03:44;;;;;;;;;;;;;;;-2.39;100.00;97281.31;1033856;28;20000;-70
2022/01/25 01:04:15;;;;;;;;;;;;;;;-2.38;100.00;97282.97;1029939;28;20343;-71
2022/01/25 01:04:46;;;;;;;;;;;;;;;-2.39;100.00;97286.47;1030269;28;19932;-70
2022/01/25 01:05:17;;;;;;;;;;;;;;;-2.39;100.00;97276.19;1038639;28;19909;-70
2022/01/25 01:05:47;;;;;;;;;;;;;;;-2.39;100.00;97283.88;1034993;28;19945;-71
2022/01/25 01:06:17;;;;;;;;;;;;;;;-2.40;100.00;97282.28;1032681;28;19924;-70
2022/01/25 01:06:48;;;;;;;;;;;;;;;-2.36;100.00;97281.03;1029113;28;20009;-71
2022/01/25 01:07:18;;;;;;;;;;;;;;;-2.34;100.00;97274.00;1026921;28;20308;-71
2022/01/25 01:07:49;;;;;;;;;;;;;;;-2.30;100.00;97275.31;1030754;28;19909;-71
2022/01/25 01:08:19;;;;;;;;;;;;;;;-2.30;100.00;97275.31;1030777;28;19957;-70
2022/01/25 01:08:49;;;;;;;;;;;;;;;-2.29;100.00;97276.94;1030287;28;19924;-71
2022/01/25 01:09:20;;;;;;;;;;;;;;;-2.31;100.00;97276.28;1030353;28;20108;-70
2022/01/25 01:09:52;;;;;;;;;;;;;;;-2.31;100.00;97278.03;1034309;28;20011;-70
2022/01/25 01:10:24;;;;;;;;;;;;;;;-2.30;100.00;97277.91;1034802;28;19909;-70
2022/01/25 01:10:57;;;;;;;;;;;;;;;-2.29;100.00;97276.13;1033748;28;19914;-70
2022/01/25 01:11:30;;;;;;;;;;;;;;;-2.27;100.00;97274.25;1030086;28;19910;-71
2022/01/25 01:12:06;;;;;;;;;;;;;;;-2.30;100.00;97277.91;1026499;28;19922;-70
2022/01/25 01:14:57;;;;;;;;;;;;;;;-2.34;100.00;97286.06;1029464;28;19965;-70
2022/01/25 01:15:52;;;;;;;;;;;;;;;-2.37;100.00;97279.44;1026481;28;19918;-71
2022/01/25 01:16:52;;;;;;;;;;;;;;;-2.34;100.00;97281.72;1023330;28;19985;-71
2022/01/25 01:29:04;;;;;;;;;;;;;;;-2.22;100.00;97295.97;1029805;28;19965;-70
2022/01/25 01:29:43;;;;;;;;;;;;;;;-2.29;100.00;97292.34;1018216;29;19981;-70
2022/01/25 01:31:47;;;;;;;;;;;;;;;-2.29;100.00;97287.22;1034601;28;19913;-71
2022/01/25 01:38:42;;;;;;;;;;;;;;;-2.51;100.00;97288.41;1030876;28;20343;-71
2022/01/25 01:42:27;;;;;;;;;;;;;;;-2.41;100.00;97289.19;1009853;29;19919;-70
2022/01/25 01:43:30;;;;;;;;;;;;;;;-2.40;100.00;97284.84;1015133;28;19919;-73
2022/01/25 01:44:03;;;;;;;;;;;;;;;-2.35;100.00;97289.56;1038859;28;19998;-70
2022/01/25 01:44:50;;;;;;;;;;;;;;;-2.33;100.00;97285.88;1033971;28;19913;-71
2022/01/25 01:46:57;;;;;;;;;;;;;;;-2.31;100.00;97288.31;1038756;28;19948;-70
2022/01/25 01:47:40;;;;;;;;;;;;;;;-2.39;100.00;97294.16;1038692;28;19909;-71
2022/01/25 01:48:15;;;;;;;;;;;;;;;-2.37;100.00;97290.50;1029370;28;19969;-71
2022/01/25 01:48:58;;;;;;;;;;;;;;;-2.38;100.00;97288.09;1030224;28;19929;-70
2022/01/25 01:49:30;;;;;;;;;;;;;;;-2.38;100.00;97298.38;1026673;28;19906;-70
2022/01/25 01:50:02;;;;;;;;;;;;;;;-2.39;100.00;97294.97;1030481;28;19910;-70
2022/01/25 01:50:34;;;;;;;;;;;;;;;-2.36;100.00;97296.47;1029613;28;20005;-70
2022/01/25 01:51:13;;;;;;;;;;;;;;;-2.37;100.00;97292.28;1030618;28;19909;-70
2022/01/25 01:51:44;;;;;;;;;;;;;;;-2.34;100.00;97298.91;1028682;28;19910;-69
2022/01/25 01:52:14;;;;;;;;;;;;;;;-2.35;100.00;97292.94;1026636;28;19997;-70
2022/01/25 01:52:45;;;;;;;;;;;;;;;-2.38;100.00;97290.66;1022832;28;20479;-69
2022/01/25 01:53:16;;;;;;;;;;;;;;;-2.46;100.00;97293.94;1029064;28;20491;-70
2022/01/25 01:53:46;;;;;;;;;;;;;;;-2.40;100.00;97292.56;1030638;28;19952;-70
2022/01/25 01:54:16;;;;;;;;;;;;;;;-2.39;100.00;97294.16;1034300;28;20029;-70
2022/01/25 01:54:46;;;;;;;;;;;;;;;-2.39;100.00;97296.75;1030150;28;19945;-70
2022/01/25 01:55:17;;;;;;;;;;;;;;;-2.34;100.00;97293.75;1023080;29;19926;-70
2022/01/25 01:55:47;;;;;;;;;;;;;;;-2.33;100.00;97291.03;1023495;29;19922;-71
2022/01/25 01:56:17;;;;;;;;;;;;;;;-2.37;100.00;97285.38;1019136;28;19954;-70
2022/01/25 01:56:48;;;;;;;;;;;;;;;-2.34;100.00;97286.06;1033997;28;19910;-71
2022/01/25 01:57:18;;;;;;;;;;;;;;;-2.35;100.00;97298.06;1031015;28;19906;-71
2022/01/25 01:57:49;;;;;;;;;;;;;;;-2.31;100.00;97293.44;1034963;28;19913;-71
2022/01/25 01:58:19;;;;;;;;;;;;;;;-2.34;100.00;97289.44;1031082;28;19918;-70
2022/01/25 01:58:52;;;;;;;;;;;;;;;-2.34;100.00;97297.13;1031269;28;19906;-71
2022/01/25 01:59:23;;;;;;;;;;;;;;;-2.29;100.00;97292.34;1030712;28;19914;-71
2022/01/25 01:59:53;;;;;;;;;;;;;;;-2.31;100.00;97298.59;1026704;28;20669;-71
2022/01/25 02:00:25;;;;;;;;;;;;;;;-2.31;100.00;97290.88;1023380;29;19946;-71
2022/01/25 02:00:56;;;;;;;;;;;;;;;-2.29;100.00;97288.97;1022767;29;19974;-71
2022/01/25 02:01:26;;;;;;;;;;;;;;;-2.28;100.00;97288.84;1023555;28;20732;-71
2022/01/25 02:01:57;;;;;;;;;;;;;;;-2.28;100.00;97288.84;1027936;28;20009;-70
2022/01/25 02:02:27;;;;;;;;;;;;;;;-2.26;100.00;97291.28;1027067;28;19906;-69
2022/01/25 02:02:58;;;;;;;;;;;;;;;-2.23;100.00;97288.41;1026673;28;19922;-71
2022/01/25 02:03:29;;;;;;;;;;;;;;;-2.22;100.00;97288.25;1022894;28;20408;-71
2022/01/25 02:03:59;;;;;;;;;;;;;;;-2.24;100.00;97286.81;1027188;28;19917;-71
2022/01/25 02:04:30;;;;;;;;;;;;;;;-2.23;100.00;97286.66;1027711;28;19918;-71
2022/01/25 02:05:00;;;;;;;;;;;;;;;-2.18;100.00;97294.75;1027193;28;19926;-72
2022/01/25 02:05:30;;;;;;;;;;;;;;;-2.17;100.00;97287.84;1031251;28;19913;-71
2022/01/25 02:06:01;;;;;;;;;;;;;;;-2.18;100.00;97288.78;1027591;28;19910;-71
2022/01/25 02:06:31;;;;;;;;;;;;;;;-2.18;100.00;97284.47;1031328;28;20034;-70
2022/01/25 02:07:01;;;;;;;;;;;;;;;-2.18;100.00;97287.03;1023596;29;19914;-71
2022/01/25 02:07:31;;;;;;;;;;;;;;;-2.17;100.00;97288.66;1023216;28;19993;-71
2022/01/25 02:08:02;;;;;;;;;;;;;;;-2.19;100.00;97287.16;1023380;29;19926;-71
2022/01/25 02:08:34;;;;;;;;;;;;;;;-2.20;100.00;97286.38;1019708;29;20545;-71
2022/01/25 02:09:04;;;;;;;;;;;;;;;-2.21;100.00;97289.91;1031651;28;19914;-71
2022/01/25 02:09:34;;;;;;;;;;;;;;;-2.17;100.00;97280.94;1027312;28;19919;-70
2022/01/25 02:10:05;;;;;;;;;;;;;;;-2.13;100.00;97284.03;1027872;28;19914;-71
2022/01/25 02:10:35;;;;;;;;;;;;;;;-2.10;100.00;97285.50;1031172;28;20423;-70
2022/01/25 02:11:06;;;;;;;;;;;;;;;-2.09;100.00;97281.97;1023718;28;19911;-71
2022/01/25 02:11:36;;;;;;;;;;;;;;;-2.08;100.00;97284.38;1031074;28;19960;-70
2022/01/25 02:12:07;;;;;;;;;;;;;;;-2.15;100.00;97284.19;1027295;28;20010;-71
2022/01/25 02:12:37;;;;;;;;;;;;;;;-2.23;100.00;97275.56;1023412;28;20301;-71
2022/01/25 02:13:08;;;;;;;;;;;;;;;-2.28;100.00;97281.16;1023023;29;20301;-71
2022/01/25 02:13:41;;;;;;;;;;;;;;;-2.38;100.00;97270.09;1024486;28;20393;-71
2022/01/25 02:14:13;;;;;;;;;;;;;;;-2.36;100.00;97281.03;1029385;28;19906;-71
2022/01/25 02:14:44;;;;;;;;;;;;;;;-2.39;100.00;97271.84;1033413;28;20373;-71
2022/01/25 02:15:15;;;;;;;;;;;;;;;-2.43;100.00;97274.84;1032789;28;19984;-71
2022/01/25 02:15:47;;;;;;;;;;;;;;;-2.41;100.00;97271.19;1032222;28;20288;-71
2022/01/25 02:17:36;;;;;;;;;;;;;;;-2.36;100.00;97275.91;1014876;29;19919;-71
2022/01/25 02:22:55;;;;;;;;;;;;;;;-2.45;100.00;97271.59;1031366;28;19953;-71
2022/01/25 02:23:26;;;;;;;;;;;;;;;-2.39;100.00;97271.03;1028415;28;20028;-71
2022/01/25 02:23:56;;;;;;;;;;;;;;;-2.37;100.00;97276.84;1031269;28;19921;-71
2022/01/25 02:24:28;;;;;;;;;;;;;;;-2.35;100.00;97274.94;1027345;28;20359;-71
2022/01/25 02:24:58;;;;;;;;;;;;;;;-2.33;100.00;97278.19;1027526;28;19930;-70
2022/01/25 02:25:28;;;;;;;;;;;;;;;-2.38;100.00;97277.81;1031035;28;20434;-70
2022/01/25 02:25:59;;;;;;;;;;;;;;;-2.33;100.00;97269.66;1027448;28;19919;-71
2022/01/25 02:26:30;;;;;;;;;;;;;;;-2.33;100.00;97278.19;1027365;28;19906;-71
2022/01/25 02:27:00;;;;;;;;;;;;;;;-2.34;100.00;97279.16;1026654;28;19925;-70
2022/01/25 02:27:30;;;;;;;;;;;;;;;-2.32;100.00;97274.66;1027692;28;19922;-71
2022/01/25 02:28:00;;;;;;;;;;;;;;;-2.30;100.00;97280.47;1031245;28;19965;-71
2022/01/25 02:28:32;;;;;;;;;;;;;;;-2.30;100.00;97277.91;1035343;28;19944;-70
2022/01/25 02:29:02;;;;;;;;;;;;;;;-2.26;100.00;97270.72;1031448;28;19924;-71
2022/01/25 02:29:33;;;;;;;;;;;;;;;-2.25;100.00;97278.25;1027300;28;19922;-71
2022/01/25 02:30:03;;;;;;;;;;;;;;;-2.22;100.00;97280.53;1027132;28;19981;-71
2022/01/25 02:30:33;;;;;;;;;;;;;;;-2.25;100.00;97277.44;1027014;28;19922;-71
2022/01/25 02:31:04;;;;;;;;;;;;;;;-2.27;100.00;97285.31;1023054;29;19914;-71
2022/01/25 02:31:35;;;;;;;;;;;;;;;-2.27;100.00;97280.19;1019663;29;19954;-72
2022/01/25 02:32:05;;;;;;;;;;;;;;;-2.25;100.00;97272.31;1027065;28;20307;-71
2022/01/25 02:32:35;;;;;;;;;;;;;;;-2.23;100.00;97268.66;1027120;28;20292;-70
2022/01/25 02:33:06;;;;;;;;;;;;;;;-2.22;100.00;97277.97;1022978;28;20287;-71
2022/01/25 02:33:36;;;;;;;;;;;;;;;-2.25;100.00;97278.25;1027293;28;20400;-70
2022/01/25 02:34:06;;;;;;;;;;;;;;;-2.22;100.00;97274.59;1023269;28;19917;-71
2022/01/25 02:34:37;;;;;;;;;;;;;;;-2.22;100.00;97279.75;1019450;29;19923;-70
2022/01/25 02:35:07;;;;;;;;;;;;;;;-2.19;100.00;97277.69;1022980;29;19969;-70
2022/01/25 02:35:37;;;;;;;;;;;;;;;-2.22;100.00;97275.41;1022943;29;19917;-70
2022/01/25 02:36:09;;;;;;;;;;;;;;;-2.18;100.00;97279.31;1018448;29;19928;-71
2022/01/25 02:36:40;;;;;;;;;;;;;;;-2.15;100.00;97281.63;1011235;29;20013;-70
2022/01/25 02:37:11;;;;;;;;;;;;;;;-2.13;100.00;97284.84;1012253;29;19915;-70
2022/01/25 02:37:41;;;;;;;;;;;;;;;-2.11;100.00;97277.00;1024964;28;19918;-70
2022/01/25 02:38:19;;;;;;;;;;;;;;;-2.13;100.00;97274.53;1027435;28;19914;-71
2022/01/25 02:38:49;;;;;;;;;;;;;;;-2.13;100.00;97278.88;1027259;28;19915;-70
2022/01/25 02:39:19;;;;;;;;;;;;;;;-2.13;100.00;97279.69;1027170;28;19918;-71
2022/01/25 02:39:50;;;;;;;;;;;;;;;-2.13;100.00;97282.25;1027406;28;20289;-70
2022/01/25 02:40:20;;;;;;;;;;;;;;;-2.13;100.00;97277.13;1031293;28;19914;-72
2022/01/25 02:40:50;;;;;;;;;;;;;;;-2.13;100.00;97282.25;1035273;28;19914;-71
2022/01/25 02:41:21;;;;;;;;;;;;;;;-2.14;100.00;97275.50;1031566;28;20291;-71
2022/01/25 02:41:52;;;;;;;;;;;;;;;-2.14;100.00;97274.69;1032258;28;19910;-71
2022/01/25 02:42:23;;;;;;;;;;;;;;;-2.13;100.00;97276.31;1032108;28;19914;-71
2022/01/25 02:42:54;;;;;;;;;;;;;;;-2.10;100.00;97280.38;1027598;28;19965;-71
2022/01/25 02:43:24;;;;;;;;;;;;;;;-2.06;100.00;97273.97;1028097;28;19941;-71
2022/01/25 02:43:56;;;;;;;;;;;;;;;-2.07;100.00;97274.94;1032242;28;19949;-71
2022/01/25 02:44:28;;;;;;;;;;;;;;;-2.08;100.00;97273.28;1027490;28;19914;-71
2022/01/25 02:44:58;;;;;;;;;;;;;;;-2.14;100.00;97270.38;1028262;28;19968;-71
2022/01/25 02:45:32;;;;;;;;;;;;;;;-2.14;100.00;97282.41;1027761;28;19984;-71
2022/01/25 02:48:51;;;;;;;;;;;;;;;-2.21;100.00;97277.03;1031739;28;20498;-71
2022/01/25 02:49:21;;;;;;;;;;;;;;;-2.19;100.00;97272.53;1033483;28;20310;-71
2022/01/25 02:49:52;;;;;;;;;;;;;;;-2.24;100.00;97277.31;1029291;28;19918;-71
2022/01/25 02:50:22;;;;;;;;;;;;;;;-2.24;100.00;97274.75;1025496;28;19926;-72
2022/01/25 02:50:52;;;;;;;;;;;;;;;-2.29;100.00;97269.22;1024354;29;20892;-71
2022/01/25 02:51:52;;;;;;;;;;;;;;;-2.25;100.00;97267.16;1035787;28;20113;-71
2022/01/25 02:52:22;;;;;;;;;;;;;;;-2.25;100.00;97274.88;1032015;28;19977;-71
2022/01/25 02:52:53;;;;;;;;;;;;;;;-2.20;100.00;97270.13;1031855;28;20355;-71
2022/01/25 02:53:23;;;;;;;;;;;;;;;-2.21;100.00;97269.34;1031811;28;19936;-71
2022/01/25 02:53:53;;;;;;;;;;;;;;;-2.17;100.00;97270.66;1032112;28;20387;-72
2022/01/25 02:54:23;;;;;;;;;;;;;;;-2.17;100.00;97260.38;1032093;28;19918;-71
2022/01/25 02:54:54;;;;;;;;;;;;;;;-2.20;100.00;97268.38;1032095;28;19918;-71
2022/01/25 02:55:24;;;;;;;;;;;;;;;-2.17;100.00;97270.66;1027941;28;19953;-71
2022/01/25 02:55:54;;;;;;;;;;;;;;;-2.18;100.00;97271.63;1032032;28;19918;-70
2022/01/25 02:56:25;;;;;;;;;;;;;;;-2.29;100.00;97269.22;1032205;28;19929;-71
2022/01/25 02:56:55;;;;;;;;;;;;;;;-2.26;100.00;97270.72;1035810;28;19914;-71
2022/01/25 02:57:26;;;;;;;;;;;;;;;-2.25;100.00;97269.75;1031618;28;19910;-71
2022/01/25 02:57:56;;;;;;;;;;;;;;;-2.25;100.00;97273.13;1028043;28;20410;-71
2022/01/25 02:58:26;;;;;;;;;;;;;;;-2.27;100.00;97274.25;1031978;28;20319;-71
2022/01/25 02:58:57;;;;;;;;;;;;;;;-2.26;100.00;97271.50;1025905;28;20149;-70
2022/01/25 02:59:27;;;;;;;;;;;;;;;-2.21;100.00;97274.47;1027384;28;19921;-70
2022/01/25 03:00:00;;;;;;;;;;;;;;;-2.19;100.00;97272.53;1029734;28;19918;-73
2022/01/25 03:00:31;;;;;;;;;;;;;;;-2.26;100.00;97266.38;1031345;28;20299;-71
2022/01/25 03:01:01;;;;;;;;;;;;;;;-2.28;100.00;97262.31;1035134;28;19913;-70
2022/01/25 03:01:32;;;;;;;;;;;;;;;-2.28;100.00;97268.28;1031023;28;19949;-69
2022/01/25 03:02:02;;;;;;;;;;;;;;;-2.27;100.00;97275.03;1031171;28;19906;-70
2022/01/25 03:02:32;;;;;;;;;;;;;;;-2.29;100.00;97269.22;1030537;28;20241;-69
2022/01/25 03:03:03;;;;;;;;;;;;;;;-2.23;100.00;97270.41;1025666;28;20075;-70
2022/01/25 03:03:33;;;;;;;;;;;;;;;-2.25;100.00;97267.97;1029486;28;19918;-70
2022/01/25 03:04:04;;;;;;;;;;;;;;;-2.19;100.00;97277.69;1031029;28;19914;-70
2022/01/25 03:04:34;;;;;;;;;;;;;;;-2.18;100.00;97268.22;1031303;28;19961;-69
2022/01/25 03:05:04;;;;;;;;;;;;;;;-2.17;100.00;97257.78;1029814;28;20466;-69
2022/01/25 03:05:35;;;;;;;;;;;;;;;-2.20;100.00;97268.38;1030747;28;19914;-70
2022/01/25 03:06:05;;;;;;;;;;;;;;;-2.21;100.00;97265.97;1027237;28;19978;-70
2022/01/25 03:06:35;;;;;;;;;;;;;;;-2.18;100.00;97266.47;1030658;28;19924;-71
2022/01/25 03:07:07;;;;;;;;;;;;;;;-2.16;100.00;97259.41;1039497;28;19940;-71
2022/01/25 03:07:37;;;;;;;;;;;;;;;-2.19;100.00;97267.41;1035064;28;19905;-71
2022/01/25 03:08:11;;;;;;;;;;;;;;;-2.18;100.00;97261.34;1034823;28;19964;-71
2022/01/25 03:08:42;;;;;;;;;;;;;;;-2.14;100.00;97265.22;1034801;28;20415;-72
2022/01/25 03:09:13;;;;;;;;;;;;;;;-2.20;100.00;97255.50;1027714;28;19918;-71
2022/01/25 03:09:44;;;;;;;;;;;;;;;-2.18;100.00;97258.75;1031016;28;19917;-70
2022/01/25 03:10:14;;;;;;;;;;;;;;;-2.21;100.00;97259.03;1031118;28;19981;-70
2022/01/25 03:10:48;;;;;;;;;;;;;;;-2.24;100.00;97259.34;1031736;28;20317;-71
2022/01/25 03:11:19;;;;;;;;;;;;;;;-2.20;100.00;97260.66;1034963;28;19918;-71
2022/01/25 03:11:52;;;;;;;;;;;;;;;-2.19;100.00;97256.31;1029435;28;19922;-70
2022/01/25 03:12:33;;;;;;;;;;;;;;;-2.20;100.00;97259.84;1023858;28;19962;-70
2022/01/25 03:13:05;;;;;;;;;;;;;;;-2.21;100.00;97261.63;1022390;29;19914;-70
2022/01/25 03:13:48;;;;;;;;;;;;;;;-2.18;100.00;97253.63;1028921;28;19922;-71
2022/01/25 03:14:20;;;;;;;;;;;;;;;-2.17;100.00;97250.09;1031099;28;20438;-71
2022/01/25 03:15:12;;;;;;;;;;;;;;;-2.20;100.00;97245.22;1032877;28;19918;-71
2022/01/25 03:16:30;;;;;;;;;;;;;;;-2.28;100.00;97247.72;1030922;28;19913;-71
2022/01/25 03:17:32;;;;;;;;;;;;;;;-2.24;100.00;97250.81;1030901;28;19918;-71
2022/01/25 03:18:07;;;;;;;;;;;;;;;-2.21;100.00;97243.63;1033511;28;19914;-70
2022/01/25 03:18:44;;;;;;;;;;;;;;;-2.40;100.00;97218.03;1034051;28;20082;-71
2022/01/25 03:20:07;;;;;;;;;;;;;;;-2.22;100.00;97246.31;1022671;28;20013;-70
2022/01/25 03:21:04;;;;;;;;;;;;;;;-2.25;100.00;97244.84;1018977;29;19919;-71
2022/01/25 03:22:00;;;;;;;;;;;;;;;-2.17;100.00;97241.56;1025022;28;19918;-71
2022/01/25 03:22:44;;;;;;;;;;;;;;;-2.16;100.00;97246.56;1025719;28;19914;-70
2022/01/25 03:23:19;;;;;;;;;;;;;;;-2.11;100.00;97242.72;1022534;29;19950;-70
2022/01/25 03:23:50;;;;;;;;;;;;;;;-2.18;100.00;97240.75;1024207;28;19914;-71
2022/01/25 03:24:20;;;;;;;;;;;;;;;-2.20;100.00;97245.22;1033008;28;20296;-70
2022/01/25 03:24:50;;;;;;;;;;;;;;;-2.24;100.00;97243.91;1031119;28;20032;-71
2022/01/25 03:25:26;;;;;;;;;;;;;;;-2.31;100.00;97245.44;1027440;28;19918;-71
2022/01/25 03:25:57;;;;;;;;;;;;;;;-2.29;100.00;97251.22;1026200;28;20456;-70
2022/01/25 03:26:27;;;;;;;;;;;;;;;-2.28;100.00;97258.00;1020867;28;20239;-71
2022/01/25 03:26:57;;;;;;;;;;;;;;;-2.32;100.00;97251.50;1027744;28;19920;-71
2022/01/25 03:27:28;;;;;;;;;;;;;;;-2.34;100.00;97252.63;1035196;28;20378;-71
2022/01/25 03:27:58;;;;;;;;;;;;;;;-2.37;100.00;97251.16;1027304;28;19949;-70
2022/01/25 03:28:29;;;;;;;;;;;;;;;-2.34;100.00;97253.44;1030791;28;19956;-71
2022/01/25 03:29:00;;;;;;;;;;;;;;;-2.34;100.00;97255.22;1031314;28;20295;-71
2022/01/25 03:29:30;;;;;;;;;;;;;;;-2.29;100.00;97253.00;1031754;28;20043;-70
2022/01/25 03:30:00;;;;;;;;;;;;;;;-2.24;100.00;97258.53;1031186;28;19969;-71
2022/01/25 03:30:33;;;;;;;;;;;;;;;-2.23;100.00;97245.50;1035193;28;20326;-71
2022/01/25 03:31:03;;;;;;;;;;;;;;;-2.24;100.00;97249.06;1026612;28;19918;-71
2022/01/25 03:31:34;;;;;;;;;;;;;;;-2.25;100.00;97257.69;1022955;29;20301;-69
2022/01/25 03:32:07;;;;;;;;;;;;;;;-2.26;100.00;97255.28;1022270;28;20435;-70
2022/01/25 03:32:37;;;;;;;;;;;;;;;-2.30;100.00;97259.91;1030850;28;19942;-69
2022/01/25 03:33:07;;;;;;;;;;;;;;;-2.37;100.00;97256.28;1030789;28;19914;-71
2022/01/25 03:33:38;;;;;;;;;;;;;;;-2.36;100.00;97260.47;1026082;28;20001;-70
2022/01/25 03:34:08;;;;;;;;;;;;;;;-2.38;100.00;97260.63;1027052;28;20308;-70
2022/01/25 03:34:38;;;;;;;;;;;;;;;-2.38;100.00;97257.25;1029673;28;19925;-70
2022/01/25 03:35:08;;;;;;;;;;;;;;;-2.32;100.00;97261.78;1031003;28;19918;-71
2022/01/25 03:35:39;;;;;;;;;;;;;;;-2.33;100.00;97262.75;1023913;28;19922;-72
2022/01/25 03:36:09;;;;;;;;;;;;;;;-2.35;100.00;97262.09;1023108;28;19938;-71
2022/01/25 03:36:40;;;;;;;;;;;;;;;-2.33;100.00;97255.03;1025788;28;19921;-70
2022/01/25 03:37:10;;;;;;;;;;;;;;;-2.29;100.00;97260.72;1031315;28;19925;-71
2022/01/25 03:37:41;;;;;;;;;;;;;;;-2.33;100.00;97255.03;1031327;28;19968;-71
2022/01/25 03:38:11;;;;;;;;;;;;;;;-2.33;100.00;97254.25;1031254;28;19929;-71
2022/01/25 03:38:41;;;;;;;;;;;;;;;-2.34;100.00;97248.28;1034560;28;19972;-70
2022/01/25 03:39:12;;;;;;;;;;;;;;;-2.34;100.00;97250.06;1030654;28;20222;-70
2022/01/25 03:39:42;;;;;;;;;;;;;;;-2.32;100.00;97251.50;1027006;28;19926;-71
2022/01/25 03:40:12;;;;;;;;;;;;;;;-2.29;100.00;97250.44;1023474;29;20108;-70
2022/01/25 03:40:44;;;;;;;;;;;;;;;-2.31;100.00;97248.00;1019110;28;20460;-71
2022/01/25 03:41:15;;;;;;;;;;;;;;;-2.31;100.00;97248.00;1033891;28;19914;-69
2022/01/25 03:41:45;;;;;;;;;;;;;;;-2.35;100.00;97251.81;1035350;28;20638;-70
2022/01/25 03:42:16;;;;;;;;;;;;;;;-2.34;100.00;97252.63;1035028;28;19944;-70
2022/01/25 03:42:48;;;;;;;;;;;;;;;-2.35;100.00;97251.81;1030450;28;20410;-70
2022/01/25 03:43:19;;;;;;;;;;;;;;;-2.37;100.00;97253.72;1022862;29;20013;-71
2022/01/25 03:43:54;;;;;;;;;;;;;;;-2.34;100.00;97252.63;1027576;28;19984;-70
2022/01/25 03:44:25;;;;;;;;;;;;;;;-2.35;100.00;97251.00;1032307;28;19959;-71
2022/01/25 03:44:56;;;;;;;;;;;;;;;-2.38;100.00;97252.13;1031753;28;20283;-71
2022/01/25 03:45:32;;;;;;;;;;;;;;;-2.43;100.00;97244.81;1034152;28;19917;-70
2022/01/25 03:46:23;;;;;;;;;;;;;;;-2.36;100.00;97247.63;1035120;28;19917;-71
2022/01/25 03:47:01;;;;;;;;;;;;;;;-2.44;100.00;97253.50;1027283;28;19950;-72
2022/01/25 03:47:44;;;;;;;;;;;;;;;-2.43;100.00;97254.28;1030419;28;20420;-71
2022/01/25 03:49:50;;;;;;;;;;;;;;;-2.45;100.00;97256.19;1039090;28;20752;-70
2022/01/25 03:50:21;;;;;;;;;;;;;;;-2.42;100.00;97245.63;1034432;28;19964;-71
2022/01/25 03:50:51;;;;;;;;;;;;;;;-2.41;100.00;97258.34;1031456;28;19914;-71
2022/01/25 03:51:21;;;;;;;;;;;;;;;-2.42;100.00;97255.91;1026673;28;19910;-70
2022/01/25 03:51:52;;;;;;;;;;;;;;;-2.41;100.00;97253.19;1027104;28;19929;-71
2022/01/25 03:52:31;;;;;;;;;;;;;;;-2.39;100.00;97255.63;1027283;28;20625;-71
2022/01/25 03:53:01;;;;;;;;;;;;;;;-2.39;100.00;97250.47;1024319;28;20618;-71
2022/01/25 03:53:31;;;;;;;;;;;;;;;-2.38;100.00;97252.13;1033339;28;19921;-71
2022/01/25 03:54:02;;;;;;;;;;;;;;;-2.38;100.00;97257.25;1032038;28;19965;-70
2022/01/25 03:54:32;;;;;;;;;;;;;;;-2.38;100.00;97254.69;1035392;28;19948;-70